sensor_id;sensor_type;location;lat;lon;timestamp;P1;durP1;ratioP1;P2;durP2;ratioP2
25079;SDS011;13071;48.868;9.996;2022-09-29T00:00:31;4.93;;;2.83;;
25079;SDS011;13071;48.868;9.996;2022-09-29T00:02:59;7.18;;;3.15;;
25079;SDS011;13071;48.868;9.996;2022-09-29T00:05:25;6.32;;;3.08;;
25079;SDS011;13071;48.868;9.996;2022-09-29T00:07:52;4.75;;;3.10;;
25079;SDS011;13071;48.868;9.996;2022-09-29T00:10:20;3.85;;;2.67;;
25079;SDS011;13071;48.868;9.996;2022-09-29T00:12:47;6.55;;;3.50;;
25079;SDS011;13071;48.868;9.996;2022-09-29T00:15:14;5.78;;;3.08;;
25079;SDS011;13071;48.868;9.996;2022-09-29T00:17:41;6.32;;;3.05;;
25079;SDS011;13071;48.868;9.996;2022-09-29T00:20:08;5.63;;;3.20;;
25079;SDS011;13071;48.868;9.996;2022-09-29T00:22:35;9.45;;;3.85;;
25079;SDS011;13071;48.868;9.996;2022-09-29T00:25:01;5.38;;;3.20;;
25079;SDS011;13071;48.868;9.996;2022-09-29T00:27:30;10.23;;;3.05;;
25079;SDS011;13071;48.868;9.996;2022-09-29T00:29:56;7.93;;;2.75;;
25079;SDS011;13071;48.868;9.996;2022-09-29T00:32:23;6.55;;;3.30;;
25079;SDS011;13071;48.868;9.996;2022-09-29T00:34:49;5.57;;;3.00;;
25079;SDS011;13071;48.868;9.996;2022-09-29T00:37:16;8.13;;;2.92;;
25079;SDS011;13071;48.868;9.996;2022-09-29T00:39:42;4.93;;;2.70;;
25079;SDS011;13071;48.868;9.996;2022-09-29T00:42:10;5.00;;;2.63;;
25079;SDS011;13071;48.868;9.996;2022-09-29T00:47:42;2.75;;;2.35;;
25079;SDS011;13071;48.868;9.996;2022-09-29T00:50:13;2.75;;;2.15;;
25079;SDS011;13071;48.868;9.996;2022-09-29T00:52:45;5.35;;;2.40;;
25079;SDS011;13071;48.868;9.996;2022-09-29T00:55:18;3.70;;;2.45;;
25079;SDS011;13071;48.868;9.996;2022-09-29T00:57:50;4.07;;;2.53;;
25079;SDS011;13071;48.868;9.996;2022-09-29T01:00:21;4.07;;;2.28;;
25079;SDS011;13071;48.868;9.996;2022-09-29T01:02:50;5.63;;;2.67;;
25079;SDS011;13071;48.868;9.996;2022-09-29T01:05:20;3.88;;;2.30;;
25079;SDS011;13071;48.868;9.996;2022-09-29T01:07:51;4.57;;;2.75;;
25079;SDS011;13071;48.868;9.996;2022-09-29T01:10:18;3.58;;;2.47;;
25079;SDS011;13071;48.868;9.996;2022-09-29T01:12:45;2.60;;;2.08;;
25079;SDS011;13071;48.868;9.996;2022-09-29T01:15:15;5.95;;;2.35;;
25079;SDS011;13071;48.868;9.996;2022-09-29T01:17:44;3.10;;;2.33;;
25079;SDS011;13071;48.868;9.996;2022-09-29T01:20:13;5.22;;;2.45;;
25079;SDS011;13071;48.868;9.996;2022-09-29T01:22:58;4.10;;;2.40;;
25079;SDS011;13071;48.868;9.996;2022-09-29T01:26:02;2.78;;;2.00;;
25079;SDS011;13071;48.868;9.996;2022-09-29T01:29:01;3.60;;;2.15;;
25079;SDS011;13071;48.868;9.996;2022-09-29T01:31:57;6.30;;;1.98;;
25079;SDS011;13071;48.868;9.996;2022-09-29T01:34:32;4.35;;;2.15;;
25079;SDS011;13071;48.868;9.996;2022-09-29T01:37:08;5.43;;;2.40;;
25079;SDS011;13071;48.868;9.996;2022-09-29T01:39:42;7.47;;;2.55;;
25079;SDS011;13071;48.868;9.996;2022-09-29T01:42:17;3.85;;;2.38;;
25079;SDS011;13071;48.868;9.996;2022-09-29T01:44:47;3.72;;;2.33;;
25079;SDS011;13071;48.868;9.996;2022-09-29T01:47:39;3.13;;;1.95;;
25079;SDS011;13071;48.868;9.996;2022-09-29T01:50:09;3.67;;;2.53;;
25079;SDS011;13071;48.868;9.996;2022-09-29T01:52:40;3.05;;;2.13;;
25079;SDS011;13071;48.868;9.996;2022-09-29T01:55:10;3.65;;;2.28;;
25079;SDS011;13071;48.868;9.996;2022-09-29T01:57:41;3.78;;;2.20;;
25079;SDS011;13071;48.868;9.996;2022-09-29T02:00:12;2.80;;;2.10;;
25079;SDS011;13071;48.868;9.996;2022-09-29T02:02:44;3.60;;;2.40;;
25079;SDS011;13071;48.868;9.996;2022-09-29T02:05:15;2.80;;;2.15;;
25079;SDS011;13071;48.868;9.996;2022-09-29T02:07:44;2.83;;;1.95;;
25079;SDS011;13071;48.868;9.996;2022-09-29T02:10:14;4.70;;;2.42;;
25079;SDS011;13071;48.868;9.996;2022-09-29T02:12:44;3.00;;;2.13;;
25079;SDS011;13071;48.868;9.996;2022-09-29T02:15:17;3.10;;;1.90;;
25079;SDS011;13071;48.868;9.996;2022-09-29T02:17:49;2.80;;;1.75;;
25079;SDS011;13071;48.868;9.996;2022-09-29T02:20:17;2.88;;;1.83;;
25079;SDS011;13071;48.868;9.996;2022-09-29T02:22:44;5.45;;;2.63;;
25079;SDS011;13071;48.868;9.996;2022-09-29T02:25:12;3.67;;;2.17;;
25079;SDS011;13071;48.868;9.996;2022-09-29T02:27:41;6.68;;;2.10;;
25079;SDS011;13071;48.868;9.996;2022-09-29T02:30:09;3.53;;;2.50;;
25079;SDS011;13071;48.868;9.996;2022-09-29T02:32:37;3.83;;;2.20;;
25079;SDS011;13071;48.868;9.996;2022-09-29T02:35:06;3.65;;;2.40;;
25079;SDS011;13071;48.868;9.996;2022-09-29T02:37:39;3.60;;;2.40;;
25079;SDS011;13071;48.868;9.996;2022-09-29T02:40:20;2.50;;;1.98;;
25079;SDS011;13071;48.868;9.996;2022-09-29T02:43:06;3.25;;;2.38;;
25079;SDS011;13071;48.868;9.996;2022-09-29T02:45:43;7.63;;;2.30;;
25079;SDS011;13071;48.868;9.996;2022-09-29T02:48:28;2.30;;;1.98;;
25079;SDS011;13071;48.868;9.996;2022-09-29T02:51:13;4.68;;;2.50;;
25079;SDS011;13071;48.868;9.996;2022-09-29T02:53:51;3.15;;;2.13;;
25079;SDS011;13071;48.868;9.996;2022-09-29T02:56:27;4.07;;;2.30;;
25079;SDS011;13071;48.868;9.996;2022-09-29T02:59:04;3.53;;;2.30;;
25079;SDS011;13071;48.868;9.996;2022-09-29T03:01:37;5.25;;;3.03;;
25079;SDS011;13071;48.868;9.996;2022-09-29T03:04:13;5.88;;;2.80;;
25079;SDS011;13071;48.868;9.996;2022-09-29T03:06:41;3.28;;;2.20;;
25079;SDS011;13071;48.868;9.996;2022-09-29T03:09:07;5.63;;;2.50;;
25079;SDS011;13071;48.868;9.996;2022-09-29T03:11:34;6.28;;;2.58;;
25079;SDS011;13071;48.868;9.996;2022-09-29T03:14:01;4.80;;;2.28;;
25079;SDS011;13071;48.868;9.996;2022-09-29T03:16:27;3.72;;;2.60;;
25079;SDS011;13071;48.868;9.996;2022-09-29T03:18:54;3.13;;;2.20;;
25079;SDS011;13071;48.868;9.996;2022-09-29T03:21:22;2.97;;;2.20;;
25079;SDS011;13071;48.868;9.996;2022-09-29T03:23:50;4.30;;;2.25;;
25079;SDS011;13071;48.868;9.996;2022-09-29T03:26:16;2.67;;;1.92;;
25079;SDS011;13071;48.868;9.996;2022-09-29T03:28:44;3.05;;;2.00;;
25079;SDS011;13071;48.868;9.996;2022-09-29T03:31:11;4.93;;;2.10;;
25079;SDS011;13071;48.868;9.996;2022-09-29T03:33:37;3.00;;;2.00;;
25079;SDS011;13071;48.868;9.996;2022-09-29T03:36:05;2.60;;;2.08;;
25079;SDS011;13071;48.868;9.996;2022-09-29T03:38:33;3.47;;;2.20;;
25079;SDS011;13071;48.868;9.996;2022-09-29T03:41:01;2.20;;;2.00;;
25079;SDS011;13071;48.868;9.996;2022-09-29T03:43:28;4.55;;;2.10;;
25079;SDS011;13071;48.868;9.996;2022-09-29T03:45:54;3.60;;;2.15;;
25079;SDS011;13071;48.868;9.996;2022-09-29T03:48:21;5.72;;;2.25;;
25079;SDS011;13071;48.868;9.996;2022-09-29T03:50:49;2.97;;;2.25;;
25079;SDS011;13071;48.868;9.996;2022-09-29T03:53:17;3.47;;;2.20;;
25079;SDS011;13071;48.868;9.996;2022-09-29T03:55:44;4.50;;;2.22;;
25079;SDS011;13071;48.868;9.996;2022-09-29T03:58:13;4.80;;;2.22;;
25079;SDS011;13071;48.868;9.996;2022-09-29T04:00:40;3.80;;;2.40;;
25079;SDS011;13071;48.868;9.996;2022-09-29T04:03:07;2.97;;;2.00;;
25079;SDS011;13071;48.868;9.996;2022-09-29T04:05:34;2.83;;;2.13;;
25079;SDS011;13071;48.868;9.996;2022-09-29T04:08:03;3.00;;;2.17;;
25079;SDS011;13071;48.868;9.996;2022-09-29T04:10:29;3.25;;;2.00;;
25079;SDS011;13071;48.868;9.996;2022-09-29T04:12:56;2.70;;;2.03;;
25079;SDS011;13071;48.868;9.996;2022-09-29T04:15:24;6.35;;;2.05;;
25079;SDS011;13071;48.868;9.996;2022-09-29T04:17:51;2.47;;;1.80;;
25079;SDS011;13071;48.868;9.996;2022-09-29T04:20:17;3.17;;;2.13;;
25079;SDS011;13071;48.868;9.996;2022-09-29T04:22:44;2.22;;;1.65;;
25079;SDS011;13071;48.868;9.996;2022-09-29T04:25:11;5.68;;;2.30;;
25079;SDS011;13071;48.868;9.996;2022-09-29T04:27:37;3.30;;;2.30;;
25079;SDS011;13071;48.868;9.996;2022-09-29T04:30:04;3.58;;;2.13;;
25079;SDS011;13071;48.868;9.996;2022-09-29T04:32:33;3.42;;;2.22;;
25079;SDS011;13071;48.868;9.996;2022-09-29T04:35:00;2.28;;;2.00;;
25079;SDS011;13071;48.868;9.996;2022-09-29T04:37:27;4.25;;;2.55;;
25079;SDS011;13071;48.868;9.996;2022-09-29T04:39:55;3.10;;;2.10;;
25079;SDS011;13071;48.868;9.996;2022-09-29T04:42:22;3.78;;;2.17;;
25079;SDS011;13071;48.868;9.996;2022-09-29T04:44:48;2.45;;;1.80;;
25079;SDS011;13071;48.868;9.996;2022-09-29T04:47:15;2.75;;;1.95;;
25079;SDS011;13071;48.868;9.996;2022-09-29T04:49:43;2.67;;;1.80;;
25079;SDS011;13071;48.868;9.996;2022-09-29T04:52:10;3.47;;;1.65;;
25079;SDS011;13071;48.868;9.996;2022-09-29T04:54:37;3.30;;;1.90;;
25079;SDS011;13071;48.868;9.996;2022-09-29T04:57:04;3.00;;;2.20;;
25079;SDS011;13071;48.868;9.996;2022-09-29T04:59:31;4.15;;;2.10;;
25079;SDS011;13071;48.868;9.996;2022-09-29T05:01:57;4.43;;;2.35;;
25079;SDS011;13071;48.868;9.996;2022-09-29T05:04:24;4.28;;;2.10;;
25079;SDS011;13071;48.868;9.996;2022-09-29T05:06:52;2.55;;;1.67;;
25079;SDS011;13071;48.868;9.996;2022-09-29T05:09:18;3.42;;;1.90;;
25079;SDS011;13071;48.868;9.996;2022-09-29T05:11:45;2.60;;;1.75;;
25079;SDS011;13071;48.868;9.996;2022-09-29T05:14:12;3.03;;;2.10;;
25079;SDS011;13071;48.868;9.996;2022-09-29T05:16:38;5.28;;;2.40;;
25079;SDS011;13071;48.868;9.996;2022-09-29T05:19:05;2.42;;;1.77;;
25079;SDS011;13071;48.868;9.996;2022-09-29T05:21:31;3.83;;;2.17;;
25079;SDS011;13071;48.868;9.996;2022-09-29T05:23:59;2.95;;;2.30;;
25079;SDS011;13071;48.868;9.996;2022-09-29T05:26:26;2.35;;;1.77;;
25079;SDS011;13071;48.868;9.996;2022-09-29T05:28:53;2.17;;;1.95;;
25079;SDS011;13071;48.868;9.996;2022-09-29T05:31:19;2.08;;;1.88;;
25079;SDS011;13071;48.868;9.996;2022-09-29T05:33:46;7.22;;;2.13;;
25079;SDS011;13071;48.868;9.996;2022-09-29T05:36:13;6.75;;;2.20;;
25079;SDS011;13071;48.868;9.996;2022-09-29T05:38:39;4.20;;;1.88;;
25079;SDS011;13071;48.868;9.996;2022-09-29T05:41:08;5.25;;;2.20;;
25079;SDS011;13071;48.868;9.996;2022-09-29T05:43:36;4.22;;;2.45;;
25079;SDS011;13071;48.868;9.996;2022-09-29T05:46:03;2.80;;;2.17;;
25079;SDS011;13071;48.868;9.996;2022-09-29T05:48:32;3.97;;;2.55;;
25079;SDS011;13071;48.868;9.996;2022-09-29T05:51:04;3.22;;;2.35;;
25079;SDS011;13071;48.868;9.996;2022-09-29T05:53:33;3.40;;;2.50;;
25079;SDS011;13071;48.868;9.996;2022-09-29T05:56:03;2.30;;;2.10;;
25079;SDS011;13071;48.868;9.996;2022-09-29T05:58:31;3.95;;;2.35;;
25079;SDS011;13071;48.868;9.996;2022-09-29T06:00:58;2.58;;;2.10;;
25079;SDS011;13071;48.868;9.996;2022-09-29T06:03:25;5.97;;;2.38;;
25079;SDS011;13071;48.868;9.996;2022-09-29T06:05:51;3.67;;;2.10;;
25079;SDS011;13071;48.868;9.996;2022-09-29T06:08:18;4.97;;;2.58;;
25079;SDS011;13071;48.868;9.996;2022-09-29T06:10:44;5.82;;;2.58;;
25079;SDS011;13071;48.868;9.996;2022-09-29T06:13:11;2.92;;;2.30;;
25079;SDS011;13071;48.868;9.996;2022-09-29T06:15:39;2.95;;;2.30;;
25079;SDS011;13071;48.868;9.996;2022-09-29T06:18:06;4.28;;;2.60;;
25079;SDS011;13071;48.868;9.996;2022-09-29T06:20:32;4.30;;;2.40;;
25079;SDS011;13071;48.868;9.996;2022-09-29T06:23:03;4.95;;;2.40;;
25079;SDS011;13071;48.868;9.996;2022-09-29T06:25:29;6.28;;;2.80;;
25079;SDS011;13071;48.868;9.996;2022-09-29T06:27:56;3.75;;;2.40;;
25079;SDS011;13071;48.868;9.996;2022-09-29T06:30:23;3.13;;;2.25;;
25079;SDS011;13071;48.868;9.996;2022-09-29T06:32:51;6.93;;;3.08;;
25079;SDS011;13071;48.868;9.996;2022-09-29T06:35:20;4.03;;;2.80;;
25079;SDS011;13071;48.868;9.996;2022-09-29T06:38:04;4.30;;;2.83;;
25079;SDS011;13071;48.868;9.996;2022-09-29T06:40:31;8.40;;;3.40;;
25079;SDS011;13071;48.868;9.996;2022-09-29T06:42:58;4.35;;;2.80;;
25079;SDS011;13071;48.868;9.996;2022-09-29T06:45:25;7.28;;;3.10;;
25079;SDS011;13071;48.868;9.996;2022-09-29T06:47:57;4.43;;;2.70;;
25079;SDS011;13071;48.868;9.996;2022-09-29T06:50:24;5.03;;;3.10;;
25079;SDS011;13071;48.868;9.996;2022-09-29T06:52:51;4.65;;;2.55;;
25079;SDS011;13071;48.868;9.996;2022-09-29T06:55:17;6.28;;;2.90;;
25079;SDS011;13071;48.868;9.996;2022-09-29T06:57:44;8.00;;;3.40;;
25079;SDS011;13071;48.868;9.996;2022-09-29T07:00:11;6.35;;;2.97;;
25079;SDS011;13071;48.868;9.996;2022-09-29T07:02:38;6.70;;;3.10;;
25079;SDS011;13071;48.868;9.996;2022-09-29T07:05:06;7.82;;;3.40;;
25079;SDS011;13071;48.868;9.996;2022-09-29T07:07:33;9.00;;;3.00;;
25079;SDS011;13071;48.868;9.996;2022-09-29T07:09:59;7.03;;;3.40;;
25079;SDS011;13071;48.868;9.996;2022-09-29T07:12:26;6.45;;;3.30;;
25079;SDS011;13071;48.868;9.996;2022-09-29T07:14:53;5.30;;;3.05;;
25079;SDS011;13071;48.868;9.996;2022-09-29T07:17:19;7.53;;;3.22;;
25079;SDS011;13071;48.868;9.996;2022-09-29T07:19:47;6.50;;;3.67;;
25079;SDS011;13071;48.868;9.996;2022-09-29T07:22:15;5.20;;;2.90;;
25079;SDS011;13071;48.868;9.996;2022-09-29T07:24:41;5.93;;;3.22;;
25079;SDS011;13071;48.868;9.996;2022-09-29T07:27:08;8.90;;;3.33;;
25079;SDS011;13071;48.868;9.996;2022-09-29T07:29:34;5.38;;;2.88;;
25079;SDS011;13071;48.868;9.996;2022-09-29T07:32:01;5.60;;;3.00;;
25079;SDS011;13071;48.868;9.996;2022-09-29T07:34:28;6.35;;;3.70;;
25079;SDS011;13071;48.868;9.996;2022-09-29T07:36:54;8.18;;;3.28;;
25079;SDS011;13071;48.868;9.996;2022-09-29T07:39:22;4.90;;;3.17;;
25079;SDS011;13071;48.868;9.996;2022-09-29T07:41:49;4.72;;;3.05;;
25079;SDS011;13071;48.868;9.996;2022-09-29T07:44:16;5.35;;;2.90;;
25079;SDS011;13071;48.868;9.996;2022-09-29T07:46:42;3.35;;;2.58;;
25079;SDS011;13071;48.868;9.996;2022-09-29T07:49:09;5.63;;;2.70;;
25079;SDS011;13071;48.868;9.996;2022-09-29T07:51:35;6.20;;;3.10;;
25079;SDS011;13071;48.868;9.996;2022-09-29T07:54:03;6.13;;;2.63;;
25079;SDS011;13071;48.868;9.996;2022-09-29T07:56:31;4.75;;;2.65;;
25079;SDS011;13071;48.868;9.996;2022-09-29T07:58:59;4.30;;;2.55;;
25079;SDS011;13071;48.868;9.996;2022-09-29T08:01:27;2.80;;;2.47;;
25079;SDS011;13071;48.868;9.996;2022-09-29T08:03:55;4.63;;;2.30;;
25079;SDS011;13071;48.868;9.996;2022-09-29T08:06:22;2.85;;;2.10;;
25079;SDS011;13071;48.868;9.996;2022-09-29T08:08:49;2.85;;;2.28;;
25079;SDS011;13071;48.868;9.996;2022-09-29T08:11:17;4.25;;;2.22;;
25079;SDS011;13071;48.868;9.996;2022-09-29T08:13:46;7.47;;;2.63;;
25079;SDS011;13071;48.868;9.996;2022-09-29T08:16:15;3.17;;;2.28;;
25079;SDS011;13071;48.868;9.996;2022-09-29T08:18:42;3.63;;;2.63;;
25079;SDS011;13071;48.868;9.996;2022-09-29T08:21:09;6.75;;;3.00;;
25079;SDS011;13071;48.868;9.996;2022-09-29T08:23:37;7.82;;;4.03;;
25079;SDS011;13071;48.868;9.996;2022-09-29T08:26:06;8.35;;;3.88;;
25079;SDS011;13071;48.868;9.996;2022-09-29T08:28:35;9.80;;;4.93;;
25079;SDS011;13071;48.868;9.996;2022-09-29T08:31:04;7.10;;;4.43;;
25079;SDS011;13071;48.868;9.996;2022-09-29T08:33:33;8.43;;;4.40;;
25079;SDS011;13071;48.868;9.996;2022-09-29T08:36:00;7.13;;;3.88;;
25079;SDS011;13071;48.868;9.996;2022-09-29T08:38:29;7.10;;;3.55;;
25079;SDS011;13071;48.868;9.996;2022-09-29T08:40:57;3.72;;;2.78;;
25079;SDS011;13071;48.868;9.996;2022-09-29T08:43:29;4.68;;;3.03;;
25079;SDS011;13071;48.868;9.996;2022-09-29T08:45:59;5.78;;;3.35;;
25079;SDS011;13071;48.868;9.996;2022-09-29T08:48:32;3.72;;;2.90;;
25079;SDS011;13071;48.868;9.996;2022-09-29T08:51:07;4.13;;;3.08;;
25079;SDS011;13071;48.868;9.996;2022-09-29T08:53:46;8.75;;;2.83;;
25079;SDS011;13071;48.868;9.996;2022-09-29T08:56:18;6.20;;;3.00;;
25079;SDS011;13071;48.868;9.996;2022-09-29T08:58:45;5.97;;;3.15;;
25079;SDS011;13071;48.868;9.996;2022-09-29T09:01:15;10.60;;;3.40;;
25079;SDS011;13071;48.868;9.996;2022-09-29T09:03:55;3.92;;;2.90;;
25079;SDS011;13071;48.868;9.996;2022-09-29T09:06:37;5.60;;;2.90;;
25079;SDS011;13071;48.868;9.996;2022-09-29T09:09:25;7.05;;;3.13;;
25079;SDS011;13071;48.868;9.996;2022-09-29T09:12:14;2.90;;;2.45;;
25079;SDS011;13071;48.868;9.996;2022-09-29T09:14:55;3.97;;;2.95;;
25079;SDS011;13071;48.868;9.996;2022-09-29T09:17:47;7.18;;;3.30;;
25079;SDS011;13071;48.868;9.996;2022-09-29T09:20:30;4.30;;;2.90;;
25079;SDS011;13071;48.868;9.996;2022-09-29T09:23:02;4.57;;;2.67;;
25079;SDS011;13071;48.868;9.996;2022-09-29T09:25:34;4.88;;;3.00;;
25079;SDS011;13071;48.868;9.996;2022-09-29T09:28:09;7.72;;;2.83;;
25079;SDS011;13071;48.868;9.996;2022-09-29T09:30:41;6.75;;;3.13;;
25079;SDS011;13071;48.868;9.996;2022-09-29T09:33:16;5.85;;;3.00;;
25079;SDS011;13071;48.868;9.996;2022-09-29T09:35:50;5.43;;;2.65;;
25079;SDS011;13071;48.868;9.996;2022-09-29T09:38:19;6.35;;;2.63;;
25079;SDS011;13071;48.868;9.996;2022-09-29T09:40:49;5.82;;;2.42;;
25079;SDS011;13071;48.868;9.996;2022-09-29T09:43:21;4.38;;;2.58;;
25079;SDS011;13071;48.868;9.996;2022-09-29T09:45:53;3.58;;;2.30;;
25079;SDS011;13071;48.868;9.996;2022-09-29T09:48:28;3.35;;;2.50;;
25079;SDS011;13071;48.868;9.996;2022-09-29T09:51:01;3.55;;;2.65;;
25079;SDS011;13071;48.868;9.996;2022-09-29T09:53:43;6.40;;;2.65;;
25079;SDS011;13071;48.868;9.996;2022-09-29T09:56:15;4.70;;;2.40;;
25079;SDS011;13071;48.868;9.996;2022-09-29T09:59:02;4.78;;;2.33;;
25079;SDS011;13071;48.868;9.996;2022-09-29T10:01:38;8.73;;;2.92;;
25079;SDS011;13071;48.868;9.996;2022-09-29T10:04:07;2.92;;;2.17;;
25079;SDS011;13071;48.868;9.996;2022-09-29T10:06:39;7.85;;;2.90;;
25079;SDS011;13071;48.868;9.996;2022-09-29T10:09:08;4.95;;;2.20;;
25079;SDS011;13071;48.868;9.996;2022-09-29T10:11:39;4.68;;;2.47;;
25079;SDS011;13071;48.868;9.996;2022-09-29T10:14:10;5.32;;;2.38;;
25079;SDS011;13071;48.868;9.996;2022-09-29T10:16:39;4.97;;;2.17;;
25079;SDS011;13071;48.868;9.996;2022-09-29T10:19:11;4.32;;;2.63;;
25079;SDS011;13071;48.868;9.996;2022-09-29T10:21:39;3.10;;;2.20;;
25079;SDS011;13071;48.868;9.996;2022-09-29T10:26:52;3.88;;;1.70;;
25079;SDS011;13071;48.868;9.996;2022-09-29T10:29:22;3.05;;;1.40;;
25079;SDS011;13071;48.868;9.996;2022-09-29T10:31:57;4.13;;;1.77;;
25079;SDS011;13071;48.868;9.996;2022-09-29T10:34:26;1.60;;;1.50;;
25079;SDS011;13071;48.868;9.996;2022-09-29T10:36:56;2.42;;;1.63;;
25079;SDS011;13071;48.868;9.996;2022-09-29T10:39:29;1.60;;;1.50;;
25079;SDS011;13071;48.868;9.996;2022-09-29T10:41:57;1.60;;;1.50;;
25079;SDS011;13071;48.868;9.996;2022-09-29T10:44:24;3.72;;;2.00;;
25079;SDS011;13071;48.868;9.996;2022-09-29T10:46:56;1.40;;;1.30;;
25079;SDS011;13071;48.868;9.996;2022-09-29T10:49:24;1.58;;;1.42;;
25079;SDS011;13071;48.868;9.996;2022-09-29T10:51:58;2.22;;;1.65;;
25079;SDS011;13071;48.868;9.996;2022-09-29T10:54:28;2.80;;;1.50;;
25079;SDS011;13071;48.868;9.996;2022-09-29T10:56:57;1.50;;;1.25;;
25079;SDS011;13071;48.868;9.996;2022-09-29T10:59:25;5.22;;;1.80;;
25079;SDS011;13071;48.868;9.996;2022-09-29T11:01:53;1.38;;;1.27;;
25079;SDS011;13071;48.868;9.996;2022-09-29T11:04:24;2.10;;;1.50;;
25079;SDS011;13071;48.868;9.996;2022-09-29T11:06:54;3.08;;;1.30;;
25079;SDS011;13071;48.868;9.996;2022-09-29T11:09:26;2.10;;;1.58;;
25079;SDS011;13071;48.868;9.996;2022-09-29T11:12:00;2.92;;;1.90;;
25079;SDS011;13071;48.868;9.996;2022-09-29T11:14:28;5.22;;;1.90;;
25079;SDS011;13071;48.868;9.996;2022-09-29T11:16:56;4.57;;;2.03;;
25079;SDS011;13071;48.868;9.996;2022-09-29T11:19:24;3.58;;;2.33;;
25079;SDS011;13071;48.868;9.996;2022-09-29T11:24:59;4.65;;;2.25;;
25079;SDS011;13071;48.868;9.996;2022-09-29T11:27:50;3.58;;;2.03;;
25079;SDS011;13071;48.868;9.996;2022-09-29T11:30:31;2.80;;;2.47;;
25079;SDS011;13071;48.868;9.996;2022-09-29T11:33:14;3.97;;;2.00;;
25079;SDS011;13071;48.868;9.996;2022-09-29T11:35:50;2.58;;;1.92;;
25079;SDS011;13071;48.868;9.996;2022-09-29T11:38:29;3.83;;;2.13;;
25079;SDS011;13071;48.868;9.996;2022-09-29T11:41:11;3.50;;;1.80;;
25079;SDS011;13071;48.868;9.996;2022-09-29T11:43:50;2.45;;;1.73;;
25079;SDS011;13071;48.868;9.996;2022-09-29T11:46:24;2.75;;;2.00;;
25079;SDS011;13071;48.868;9.996;2022-09-29T11:49:13;3.40;;;1.80;;
25079;SDS011;13071;48.868;9.996;2022-09-29T11:51:52;2.28;;;1.60;;
25079;SDS011;13071;48.868;9.996;2022-09-29T11:54:33;1.80;;;1.70;;
25079;SDS011;13071;48.868;9.996;2022-09-29T11:57:14;4.32;;;1.75;;
25079;SDS011;13071;48.868;9.996;2022-09-29T12:00:02;2.13;;;1.60;;
25079;SDS011;13071;48.868;9.996;2022-09-29T12:02:37;2.22;;;1.80;;
25079;SDS011;13071;48.868;9.996;2022-09-29T12:05:18;4.70;;;2.00;;
25079;SDS011;13071;48.868;9.996;2022-09-29T12:07:53;2.70;;;1.60;;
25079;SDS011;13071;48.868;9.996;2022-09-29T12:10:43;4.43;;;1.80;;
25079;SDS011;13071;48.868;9.996;2022-09-29T12:13:22;2.42;;;1.95;;
25079;SDS011;13071;48.868;9.996;2022-09-29T12:15:58;2.88;;;1.80;;
25079;SDS011;13071;48.868;9.996;2022-09-29T12:18:30;2.22;;;1.65;;
25079;SDS011;13071;48.868;9.996;2022-09-29T12:21:00;2.08;;;1.60;;
25079;SDS011;13071;48.868;9.996;2022-09-29T12:23:29;1.35;;;1.25;;
25079;SDS011;13071;48.868;9.996;2022-09-29T12:26:03;1.48;;;1.38;;
25079;SDS011;13071;48.868;9.996;2022-09-29T12:28:36;1.58;;;1.48;;
25079;SDS011;13071;48.868;9.996;2022-09-29T12:31:10;1.70;;;1.60;;
25079;SDS011;13071;48.868;9.996;2022-09-29T12:33:41;1.38;;;1.30;;
25079;SDS011;13071;48.868;9.996;2022-09-29T12:36:17;1.73;;;1.50;;
25079;SDS011;13071;48.868;9.996;2022-09-29T12:39:16;2.03;;;1.20;;
25079;SDS011;13071;48.868;9.996;2022-09-29T12:41:53;1.95;;;1.23;;
25079;SDS011;13071;48.868;9.996;2022-09-29T12:44:32;1.75;;;1.50;;
25079;SDS011;13071;48.868;9.996;2022-09-29T12:47:07;4.03;;;1.40;;
25079;SDS011;13071;48.868;9.996;2022-09-29T12:49:40;3.55;;;1.90;;
25079;SDS011;13071;48.868;9.996;2022-09-29T12:52:16;1.58;;;1.35;;
25079;SDS011;13071;48.868;9.996;2022-09-29T12:54:49;2.22;;;1.40;;
25079;SDS011;13071;48.868;9.996;2022-09-29T12:57:21;2.00;;;1.50;;
25079;SDS011;13071;48.868;9.996;2022-09-29T12:59:54;3.15;;;1.60;;
25079;SDS011;13071;48.868;9.996;2022-09-29T13:02:34;2.25;;;1.42;;
25079;SDS011;13071;48.868;9.996;2022-09-29T13:05:25;1.67;;;1.58;;
25079;SDS011;13071;48.868;9.996;2022-09-29T13:11:20;1.45;;;1.20;;
25079;SDS011;13071;48.868;9.996;2022-09-29T13:14:11;1.48;;;1.38;;
25079;SDS011;13071;48.868;9.996;2022-09-29T13:16:54;1.52;;;1.13;;
25079;SDS011;13071;48.868;9.996;2022-09-29T13:25:27;2.83;;;1.42;;
25079;SDS011;13071;48.868;9.996;2022-09-29T13:28:03;3.30;;;1.50;;
25079;SDS011;13071;48.868;9.996;2022-09-29T13:30:37;1.67;;;1.58;;
25079;SDS011;13071;48.868;9.996;2022-09-29T13:33:08;1.55;;;1.30;;
25079;SDS011;13071;48.868;9.996;2022-09-29T13:35:41;1.50;;;1.40;;
25079;SDS011;13071;48.868;9.996;2022-09-29T13:38:12;1.52;;;1.42;;
25079;SDS011;13071;48.868;9.996;2022-09-29T13:43:35;1.92;;;1.33;;
25079;SDS011;13071;48.868;9.996;2022-09-29T13:48:54;1.67;;;1.30;;
25079;SDS011;13071;48.868;9.996;2022-09-29T13:54:25;1.40;;;1.30;;
25079;SDS011;13071;48.868;9.996;2022-09-29T13:57:19;1.00;;;1.00;;
25079;SDS011;13071;48.868;9.996;2022-09-29T14:02:58;1.40;;;1.30;;
25079;SDS011;13071;48.868;9.996;2022-09-29T14:05:53;1.48;;;1.15;;
25079;SDS011;13071;48.868;9.996;2022-09-29T14:08:38;5.50;;;1.33;;
25079;SDS011;13071;48.868;9.996;2022-09-29T14:11:13;2.22;;;1.27;;
25079;SDS011;13071;48.868;9.996;2022-09-29T14:13:46;1.95;;;1.30;;
25079;SDS011;13071;48.868;9.996;2022-09-29T14:16:30;1.20;;;1.20;;
25079;SDS011;13071;48.868;9.996;2022-09-29T14:19:04;8.60;;;3.90;;
25079;SDS011;13071;48.868;9.996;2022-09-29T14:21:47;6.35;;;2.70;;
25079;SDS011;13071;48.868;9.996;2022-09-29T14:30:03;1.33;;;1.10;;
25079;SDS011;13071;48.868;9.996;2022-09-29T14:32:38;1.20;;;1.10;;
25079;SDS011;13071;48.868;9.996;2022-09-29T14:35:13;1.88;;;1.25;;
25079;SDS011;13071;48.868;9.996;2022-09-29T14:37:44;1.10;;;0.95;;
25079;SDS011;13071;48.868;9.996;2022-09-29T14:40:16;1.20;;;1.10;;
25079;SDS011;13071;48.868;9.996;2022-09-29T14:43:05;2.88;;;1.05;;
25079;SDS011;13071;48.868;9.996;2022-09-29T14:45:38;3.00;;;1.05;;
25079;SDS011;13071;48.868;9.996;2022-09-29T14:48:41;1.45;;;0.90;;
25079;SDS011;13071;48.868;9.996;2022-09-29T14:51:38;0.80;;;0.80;;
25079;SDS011;13071;48.868;9.996;2022-09-29T14:54:27;0.70;;;0.70;;
25079;SDS011;13071;48.868;9.996;2022-09-29T14:57:04;1.40;;;1.00;;
25079;SDS011;13071;48.868;9.996;2022-09-29T14:59:48;1.80;;;1.13;;
25079;SDS011;13071;48.868;9.996;2022-09-29T15:02:26;0.90;;;0.90;;
25079;SDS011;13071;48.868;9.996;2022-09-29T15:04:54;1.75;;;0.90;;
25079;SDS011;13071;48.868;9.996;2022-09-29T15:07:22;1.05;;;1.00;;
25079;SDS011;13071;48.868;9.996;2022-09-29T15:09:52;1.00;;;0.68;;
25079;SDS011;13071;48.868;9.996;2022-09-29T15:12:20;2.13;;;0.90;;
25079;SDS011;13071;48.868;9.996;2022-09-29T15:14:50;1.15;;;1.00;;
25079;SDS011;13071;48.868;9.996;2022-09-29T15:17:21;1.88;;;0.90;;
25079;SDS011;13071;48.868;9.996;2022-09-29T15:20:07;1.13;;;1.00;;
25079;SDS011;13071;48.868;9.996;2022-09-29T15:22:45;1.90;;;0.90;;
25079;SDS011;13071;48.868;9.996;2022-09-29T15:25:24;4.13;;;2.08;;
25079;SDS011;13071;48.868;9.996;2022-09-29T15:27:53;5.10;;;1.27;;
25079;SDS011;13071;48.868;9.996;2022-09-29T15:30:23;3.05;;;1.20;;
25079;SDS011;13071;48.868;9.996;2022-09-29T15:32:52;5.15;;;1.77;;
25079;SDS011;13071;48.868;9.996;2022-09-29T15:35:20;2.85;;;1.35;;
25079;SDS011;13071;48.868;9.996;2022-09-29T15:37:53;2.97;;;1.70;;
25079;SDS011;13071;48.868;9.996;2022-09-29T15:40:22;4.07;;;2.50;;
25079;SDS011;13071;48.868;9.996;2022-09-29T15:42:52;7.95;;;4.07;;
25079;SDS011;13071;48.868;9.996;2022-09-29T15:45:21;2.60;;;1.67;;
25079;SDS011;13071;48.868;9.996;2022-09-29T15:47:56;1.25;;;1.15;;
25079;SDS011;13071;48.868;9.996;2022-09-29T15:50:25;1.17;;;0.93;;